createdAt,value
2018-06-13T00:04:14.931Z,81.30
2018-06-13T00:09:17.472Z,81.20
2018-06-13T00:14:20.794Z,81.50
2018-06-13T00:19:23.325Z,81.40
2018-06-13T00:24:26.683Z,80.60
2018-06-13T00:29:29.229Z,80.50
2018-06-13T00:34:31.776Z,81.00
2018-06-13T00:39:34.308Z,81.50
2018-06-13T00:44:36.854Z,81.60
2018-06-13T00:49:39.398Z,81.40
2018-06-13T00:54:41.949Z,81.90
2018-06-13T00:59:44.549Z,81.20
2018-06-13T01:04:47.869Z,82.80
2018-06-13T01:09:51.187Z,83.10
2018-06-13T01:14:53.737Z,83.00
2018-06-13T01:19:56.279Z,82.70
2018-06-13T01:24:59.649Z,83.30
2018-06-13T01:30:02.190Z,83.30
2018-06-13T01:35:05.519Z,82.80
2018-06-13T01:40:08.828Z,82.80
2018-06-13T01:45:12.147Z,82.90
2018-06-13T01:50:15.468Z,81.90
2018-06-13T01:55:18.773Z,82.80
2018-06-13T02:00:21.327Z,82.70
2018-06-13T02:05:23.892Z,81.70
2018-06-13T02:10:26.433Z,82.70
2018-06-13T02:15:28.972Z,82.40
2018-06-13T02:20:32.320Z,81.90
2018-06-13T02:25:34.881Z,81.90
2018-06-13T02:30:37.434Z,81.70
2018-06-13T02:35:40.764Z,82.00
2018-06-13T02:40:43.348Z,81.90
2018-06-13T02:45:45.897Z,82.50
2018-06-13T02:50:48.444Z,81.70
2018-06-13T02:55:50.982Z,81.70
2018-06-13T03:00:53.707Z,81.70
2018-06-13T03:05:56.254Z,81.50
2018-06-13T03:10:58.803Z,81.70
2018-06-13T03:16:01.360Z,81.20
2018-06-13T03:21:03.907Z,80.90
2018-06-13T03:26:06.460Z,81.10
2018-06-13T03:31:08.996Z,81.60
2018-06-13T03:36:11.541Z,81.00
2018-06-13T03:41:14.088Z,81.40
2018-06-13T03:46:16.633Z,81.00
2018-06-13T03:51:19.194Z,80.80
2018-06-13T03:56:21.750Z,81.00
2018-06-13T04:01:24.337Z,81.00
2018-06-13T04:06:26.881Z,80.70
2018-06-13T04:11:29.420Z,80.40
2018-06-13T04:16:31.945Z,80.40
2018-06-13T04:21:34.485Z,80.70
2018-06-13T04:26:37.027Z,81.20
2018-06-13T04:31:39.601Z,81.50
2018-06-13T04:36:42.145Z,81.50
2018-06-13T04:41:44.712Z,81.20
2018-06-13T04:46:47.269Z,81.40
2018-06-13T04:51:49.804Z,80.70
2018-06-13T04:56:52.362Z,80.70
2018-06-13T05:01:54.964Z,80.70
2018-06-13T05:06:57.533Z,80.10
2018-06-13T05:12:00.299Z,80.10
2018-06-13T05:17:02.831Z,80.30
2018-06-13T05:22:05.362Z,79.90
2018-06-13T05:27:07.911Z,80.30
2018-06-13T05:32:10.487Z,79.90
2018-06-13T05:37:13.037Z,80.20
2018-06-13T05:42:15.613Z,80.00
2018-06-13T05:47:18.145Z,79.90
2018-06-13T05:52:20.712Z,80.00
2018-06-13T05:57:23.273Z,79.90
2018-06-13T06:02:25.830Z,79.70
2018-06-13T06:07:28.369Z,79.60
2018-06-13T06:12:31.684Z,79.80
2018-06-13T06:17:34.228Z,80.40
2018-06-13T06:22:36.782Z,79.60
2018-06-13T06:27:39.625Z,79.50
2018-06-13T06:32:42.165Z,79.60
2018-06-13T06:37:44.715Z,79.30
2018-06-13T06:42:47.245Z,79.10
2018-06-13T06:47:49.800Z,78.90
2018-06-13T06:52:52.331Z,78.80
2018-06-13T06:57:54.896Z,78.70
2018-06-13T07:02:57.447Z,78.90
2018-06-13T07:08:00.010Z,78.40
2018-06-13T07:13:02.558Z,78.70
2018-06-13T07:18:05.124Z,78.30
2018-06-13T07:23:07.714Z,78.20
2018-06-13T07:28:10.262Z,78.40
2018-06-13T07:33:12.800Z,78.00
2018-06-13T07:38:15.334Z,77.60
2018-06-13T07:43:17.872Z,77.60
2018-06-13T07:48:20.417Z,77.40
2018-06-13T07:53:22.954Z,77.30
2018-06-13T07:58:25.484Z,77.10
2018-06-13T08:03:28.044Z,76.90
2018-06-13T08:08:30.777Z,77.00
2018-06-13T08:13:34.729Z,77.00
2018-06-13T08:18:37.330Z,77.00
2018-06-13T08:23:39.874Z,76.80
2018-06-13T08:28:42.427Z,77.10
2018-06-13T08:33:45.014Z,76.80
2018-06-13T08:38:47.527Z,76.70
2018-06-13T08:43:50.055Z,76.40
2018-06-13T08:48:52.604Z,76.10
2018-06-13T08:53:55.171Z,75.40
2018-06-13T08:58:58.463Z,75.00
2018-06-13T09:04:01.009Z,75.00
2018-06-13T09:09:03.609Z,75.10
2018-06-13T09:14:06.903Z,74.70
2018-06-13T09:19:09.449Z,74.60
2018-06-13T09:24:12.001Z,74.00
2018-06-13T09:29:14.551Z,74.90
2018-06-13T09:34:17.091Z,73.80
2018-06-13T09:39:19.625Z,73.80
2018-06-13T09:44:22.158Z,73.40
2018-06-13T09:49:24.726Z,73.00
2018-06-13T09:54:27.392Z,72.90
2018-06-13T09:59:29.922Z,73.10
2018-06-13T10:04:32.526Z,73.30
2018-06-13T10:09:35.015Z,73.20
2018-06-13T10:14:37.578Z,72.90
2018-06-13T10:19:40.128Z,72.80
2018-06-13T10:24:42.688Z,73.10
2018-06-13T10:29:45.237Z,72.40
2018-06-13T10:34:47.779Z,72.00
2018-06-13T10:39:50.352Z,71.60
2018-06-13T10:44:52.917Z,71.40
2018-06-13T10:49:55.468Z,71.10
2018-06-13T10:54:58.031Z,70.70
2018-06-13T11:00:00.557Z,70.80
2018-06-13T11:05:03.344Z,70.70
2018-06-13T11:10:05.907Z,70.40
2018-06-13T11:15:08.426Z,70.00
2018-06-13T11:20:10.970Z,69.50
2018-06-13T11:25:13.518Z,69.70
2018-06-13T11:30:16.045Z,68.70
2018-06-13T11:35:18.578Z,68.10
2018-06-13T11:40:21.116Z,68.40
2018-06-13T11:45:23.653Z,68.60
2018-06-13T11:50:26.205Z,68.70
2018-06-13T11:55:28.765Z,68.20
2018-06-13T12:00:31.319Z,68.00
2018-06-13T12:05:33.861Z,68.20
2018-06-13T12:10:36.407Z,67.90
2018-06-13T12:15:38.964Z,68.10
2018-06-13T12:20:41.569Z,67.80
2018-06-13T12:25:44.113Z,67.50
2018-06-13T12:30:46.645Z,67.40
2018-06-13T12:35:49.187Z,67.90
2018-06-13T12:40:51.733Z,67.10
2018-06-13T12:45:54.281Z,67.20
2018-06-13T12:50:57.641Z,67.60
2018-06-13T12:56:00.152Z,67.50
2018-06-13T13:01:02.686Z,67.80
2018-06-13T13:06:05.504Z,67.20
2018-06-13T13:11:08.101Z,66.30
2018-06-13T13:16:10.591Z,67.30
2018-06-13T13:21:13.154Z,66.70
2018-06-13T13:26:15.713Z,66.80
2018-06-13T13:31:18.251Z,66.00
2018-06-13T13:36:20.801Z,66.10
2018-06-13T13:41:23.330Z,65.70
2018-06-13T13:46:25.869Z,65.50
2018-06-13T13:51:28.405Z,65.70
2018-06-13T13:56:30.955Z,65.90
2018-06-13T14:01:33.506Z,65.40
2018-06-13T14:06:36.052Z,65.70
2018-06-13T14:11:38.591Z,65.50
2018-06-13T14:16:41.134Z,65.70
2018-06-13T14:21:43.788Z,65.40
2018-06-13T14:26:46.345Z,65.80
2018-06-13T14:31:48.861Z,65.40
2018-06-13T14:36:51.405Z,65.50
2018-06-13T14:41:53.955Z,65.80
2018-06-13T14:46:56.500Z,65.40
2018-06-13T14:51:59.840Z,65.50
2018-06-13T14:57:02.404Z,65.50
2018-06-13T15:02:05.009Z,65.40
2018-06-13T15:07:07.560Z,65.50
2018-06-13T15:12:10.140Z,66.10
2018-06-13T15:17:12.692Z,64.20
2018-06-13T15:22:15.273Z,65.50
2018-06-13T15:27:17.829Z,64.40
2018-06-13T15:32:20.385Z,63.90
2018-06-13T15:37:22.952Z,63.30
2018-06-13T15:42:27.321Z,63.50
2018-06-13T15:47:29.855Z,63.40
2018-06-13T15:52:33.179Z,63.90
2018-06-13T15:57:35.717Z,63.70
2018-06-13T16:02:38.248Z,63.70
2018-06-13T16:07:40.814Z,63.60
2018-06-13T16:12:43.354Z,63.50
2018-06-13T16:17:45.908Z,63.50
2018-06-13T16:22:48.445Z,63.50
2018-06-13T16:27:50.973Z,63.30
2018-06-13T16:32:54.316Z,63.00
2018-06-13T16:37:56.888Z,63.00
2018-06-13T16:42:59.440Z,63.30
2018-06-13T16:48:01.980Z,63.40
2018-06-13T16:53:04.579Z,62.60
2018-06-13T16:58:07.130Z,62.80
2018-06-13T17:03:09.708Z,62.50
2018-06-13T17:08:12.275Z,62.50
2018-06-13T17:13:14.840Z,62.30
2018-06-13T17:18:17.422Z,62.50
2018-06-13T17:23:19.965Z,62.40
2018-06-13T17:28:22.547Z,62.90
2018-06-13T17:33:25.127Z,63.00
2018-06-13T17:38:28.336Z,63.00
2018-06-13T17:43:30.925Z,63.00
2018-06-13T17:48:34.104Z,63.10
2018-06-13T17:53:36.670Z,63.10
2018-06-13T17:58:39.344Z,63.20
2018-06-13T18:03:41.958Z,63.10
2018-06-13T18:08:45.451Z,62.70
2018-06-13T18:13:47.958Z,62.70
2018-06-13T18:18:50.521Z,62.70
2018-06-13T18:23:53.070Z,63.10
2018-06-13T18:28:55.615Z,63.10
2018-06-13T18:33:58.177Z,63.00
2018-06-13T18:39:00.725Z,63.20
2018-06-13T18:44:03.274Z,63.10
2018-06-13T18:49:05.837Z,63.00
2018-06-13T18:54:09.200Z,63.00
2018-06-13T18:59:11.751Z,63.00
2018-06-13T19:04:14.298Z,63.30
2018-06-13T19:09:16.846Z,63.20
2018-06-13T19:14:20.165Z,63.30
2018-06-13T19:19:23.484Z,63.40
2018-06-13T19:24:26.029Z,63.20
2018-06-13T19:29:28.593Z,63.50
2018-06-13T19:34:31.126Z,63.60
2018-06-13T19:39:33.681Z,63.80
2018-06-13T19:44:36.208Z,64.00
2018-06-13T19:49:38.749Z,64.10
2018-06-13T19:55:00.075Z,64.20
2018-06-13T20:00:02.680Z,64.20
2018-06-13T20:05:10.850Z,63.90
2018-06-13T20:10:13.392Z,63.80
2018-06-13T20:15:31.698Z,63.90
2018-06-13T20:20:35.003Z,64.10
2018-06-13T20:25:37.557Z,64.00
2018-06-13T20:30:56.938Z,63.80
2018-06-13T20:35:59.497Z,64.00
2018-06-13T20:41:02.029Z,64.40
2018-06-13T20:46:04.582Z,64.50
2018-06-13T20:51:07.125Z,64.50
2018-06-13T20:56:09.652Z,64.50
2018-06-13T21:01:12.200Z,64.50
2018-06-13T21:06:14.731Z,64.40
2018-06-13T21:11:17.277Z,64.50
2018-06-13T21:16:19.838Z,64.60
2018-06-13T21:21:22.390Z,64.90
2018-06-13T21:26:25.704Z,65.10
2018-06-13T21:31:28.234Z,65.10
2018-06-13T21:36:30.775Z,65.10
2018-06-13T21:41:33.312Z,65.10
2018-06-13T21:46:35.854Z,65.10
2018-06-13T21:51:38.417Z,65.00
2018-06-13T21:56:41.746Z,65.40
2018-06-13T22:01:44.273Z,65.40
2018-06-13T22:06:46.816Z,65.40
2018-06-13T22:11:49.365Z,65.40
2018-06-13T22:16:52.662Z,65.30
2018-06-13T22:21:55.263Z,65.20
2018-06-13T22:26:57.809Z,65.30
2018-06-13T22:32:00.348Z,65.20
2018-06-13T22:37:03.009Z,65.40
2018-06-13T22:42:05.645Z,65.50
2018-06-13T22:47:08.178Z,65.40
2018-06-13T22:52:10.734Z,65.60
2018-06-13T22:57:13.274Z,65.80
2018-06-13T23:02:15.821Z,65.80
2018-06-13T23:07:18.425Z,65.70
2018-06-13T23:12:21.017Z,65.50
2018-06-13T23:17:23.555Z,65.80
2018-06-13T23:22:26.101Z,65.70
2018-06-13T23:27:28.640Z,65.80
2018-06-13T23:32:31.169Z,65.90
2018-06-13T23:37:33.739Z,65.70
2018-06-13T23:42:36.257Z,65.60
2018-06-13T23:47:38.797Z,65.30
2018-06-13T23:52:41.335Z,65.60
2018-06-13T23:57:43.885Z,65.70
